createdAt,value
2016-07-31T00:00:33.544Z,952.26
2016-07-31T00:01:26.946Z,952.33
2016-07-31T00:02:33.927Z,952.30
2016-07-31T00:03:34.793Z,952.31
2016-07-31T00:04:15.467Z,952.31
2016-07-31T00:05:32.546Z,952.33
2016-07-31T00:06:14.630Z,952.32
2016-07-31T00:07:32.464Z,952.34
2016-07-31T00:08:27.465Z,952.36
2016-07-31T00:09:28.747Z,952.34
2016-07-31T00:10:27.523Z,952.33
2016-07-31T00:11:28.323Z,952.36
2016-07-31T00:12:38.982Z,952.31
2016-07-31T00:13:29.218Z,952.28
2016-07-31T00:14:25.521Z,952.33
2016-07-31T00:15:35.974Z,952.30
2016-07-31T00:16:14.163Z,952.31
2016-07-31T00:17:31.905Z,952.30
2016-07-31T00:18:26.008Z,952.32
2016-07-31T00:19:33.646Z,952.28
2016-07-31T00:20:13.737Z,952.30
2016-07-31T00:21:33.016Z,952.27
2016-07-31T00:22:33.675Z,952.26
2016-07-31T00:23:34.836Z,952.22
2016-07-31T00:24:33.569Z,952.16
2016-07-31T00:25:26.074Z,952.18
2016-07-31T00:26:31.724Z,952.23
2016-07-31T00:27:28.053Z,952.23
2016-07-31T00:28:28.718Z,952.21
2016-07-31T00:29:38.873Z,952.24
2016-07-31T00:30:30.369Z,952.27
2016-07-31T00:31:32.892Z,952.25
2016-07-31T00:32:33.520Z,952.24
2016-07-31T00:33:12.872Z,952.26
2016-07-31T00:34:28.050Z,952.33
2016-07-31T00:35:28.261Z,952.33
2016-07-31T00:36:28.004Z,952.35
2016-07-31T00:37:27.033Z,952.35
2016-07-31T00:38:28.040Z,952.33
2016-07-31T00:39:29.772Z,952.31
2016-07-31T00:40:33.463Z,952.33
2016-07-31T00:41:13.618Z,952.32
2016-07-31T00:42:33.684Z,952.30
2016-07-31T00:43:33.093Z,952.28
2016-07-31T00:44:12.185Z,952.26
2016-07-31T00:45:26.948Z,952.22
2016-07-31T00:46:13.259Z,952.13
2016-07-31T00:47:29.782Z,952.13
2016-07-31T00:48:29.581Z,952.14
2016-07-31T00:49:37.351Z,952.17
2016-07-31T00:50:13.736Z,952.16
2016-07-31T00:51:32.342Z,952.17
2016-07-31T00:52:28.982Z,952.15
2016-07-31T00:53:34.053Z,952.16
2016-07-31T00:54:19.904Z,952.16
2016-07-31T00:55:33.618Z,952.14
2016-07-31T00:56:32.156Z,952.13
2016-07-31T00:57:14.014Z,952.14
2016-07-31T00:58:28.000Z,952.16
2016-07-31T00:59:27.601Z,952.12
2016-07-31T01:00:38.598Z,952.05
2016-07-31T01:01:28.632Z,952.05
2016-07-31T01:02:15.926Z,952.02
2016-07-31T01:03:14.413Z,951.99
2016-07-31T01:04:28.696Z,952.03
2016-07-31T01:05:27.264Z,952.03
2016-07-31T01:06:34.049Z,952.08
2016-07-31T01:07:35.073Z,952.13
2016-07-31T01:08:14.443Z,952.09
2016-07-31T01:09:28.002Z,952.11
2016-07-31T01:10:28.379Z,952.11
2016-07-31T01:11:26.362Z,952.13
2016-07-31T01:12:31.233Z,952.09
2016-07-31T01:13:32.134Z,952.06
2016-07-31T01:14:17.315Z,952.07
2016-07-31T01:15:27.390Z,952.01
2016-07-31T01:16:14.616Z,952.10
2016-07-31T01:17:33.662Z,952.12
2016-07-31T01:18:27.468Z,952.14
2016-07-31T01:19:25.486Z,952.18
2016-07-31T01:20:35.603Z,952.20
2016-07-31T01:21:28.422Z,952.17
2016-07-31T01:22:34.316Z,952.19
2016-07-31T01:23:29.590Z,952.20
2016-07-31T01:24:31.983Z,952.23
2016-07-31T01:25:24.573Z,952.22
2016-07-31T01:26:31.875Z,952.22
2016-07-31T01:27:33.807Z,952.23
2016-07-31T01:28:32.874Z,952.21
2016-07-31T01:29:26.589Z,952.22
2016-07-31T01:30:26.142Z,952.22
2016-07-31T01:31:31.762Z,952.26
2016-07-31T01:32:35.849Z,952.28
2016-07-31T01:33:28.375Z,952.22
2016-07-31T01:34:15.796Z,952.24
2016-07-31T01:35:16.551Z,952.21
2016-07-31T01:36:34.699Z,952.13
2016-07-31T01:37:27.890Z,952.14
2016-07-31T01:38:14.967Z,952.08
2016-07-31T01:39:32.536Z,952.02
2016-07-31T01:40:27.731Z,952.00
2016-07-31T01:41:14.618Z,951.97
2016-07-31T01:42:32.583Z,951.92
2016-07-31T01:43:32.614Z,951.94
2016-07-31T01:44:39.594Z,951.85
2016-07-31T01:45:33.026Z,951.80
2016-07-31T01:46:31.695Z,951.77
2016-07-31T01:47:29.058Z,951.78
2016-07-31T01:48:31.340Z,951.77
2016-07-31T01:49:28.134Z,951.75
2016-07-31T01:50:39.455Z,951.82
2016-07-31T01:51:26.582Z,951.82
2016-07-31T01:52:31.205Z,951.85
2016-07-31T01:53:29.647Z,951.84
2016-07-31T01:54:26.637Z,951.86
2016-07-31T01:55:28.073Z,951.81
2016-07-31T01:56:29.719Z,951.79
2016-07-31T01:57:37.466Z,951.81
2016-07-31T01:58:37.199Z,951.77
2016-07-31T01:59:33.668Z,951.74
2016-07-31T02:00:39.054Z,951.70
2016-07-31T02:01:33.647Z,951.72
2016-07-31T02:02:30.866Z,951.70
2016-07-31T02:03:28.412Z,951.69
2016-07-31T02:04:32.647Z,951.74
2016-07-31T02:05:32.749Z,951.71
2016-07-31T02:06:30.134Z,951.79
2016-07-31T02:07:37.206Z,951.80
2016-07-31T02:08:31.462Z,951.89
2016-07-31T02:09:28.393Z,951.90
2016-07-31T02:10:28.713Z,951.96
2016-07-31T02:11:33.347Z,951.96
2016-07-31T02:12:24.660Z,951.92
2016-07-31T02:13:28.253Z,951.95
2016-07-31T02:14:29.814Z,951.98
2016-07-31T02:15:26.216Z,951.98
2016-07-31T02:16:29.661Z,951.98
2016-07-31T02:17:27.999Z,951.98
2016-07-31T02:18:33.318Z,952.00
2016-07-31T02:19:22.085Z,951.99
2016-07-31T02:20:35.699Z,951.90
2016-07-31T02:21:27.970Z,951.95
2016-07-31T02:22:32.655Z,951.94
2016-07-31T02:23:33.170Z,951.92
2016-07-31T02:24:28.171Z,951.92
2016-07-31T02:25:29.491Z,951.90
2016-07-31T02:26:33.276Z,951.91
2016-07-31T02:27:29.914Z,951.86
2016-07-31T02:28:31.596Z,951.89
2016-07-31T02:29:31.957Z,951.87
2016-07-31T02:30:29.049Z,951.82
2016-07-31T02:31:47.521Z,951.82
2016-07-31T02:32:27.769Z,951.84
2016-07-31T02:33:29.230Z,951.82
2016-07-31T02:34:27.851Z,951.82
2016-07-31T02:35:34.583Z,951.78
2016-07-31T02:36:32.967Z,951.78
2016-07-31T02:37:32.044Z,951.81
2016-07-31T02:38:29.442Z,951.81
2016-07-31T02:39:16.184Z,951.80
2016-07-31T02:40:41.647Z,951.78
2016-07-31T02:41:25.254Z,951.78
2016-07-31T02:42:32.633Z,951.76
2016-07-31T02:43:33.688Z,951.76
2016-07-31T02:44:33.725Z,951.78
2016-07-31T02:45:28.155Z,951.74
2016-07-31T02:46:29.140Z,951.72
2016-07-31T02:47:29.943Z,951.73
2016-07-31T02:48:20.956Z,951.76
2016-07-31T02:49:28.222Z,951.74
2016-07-31T02:50:26.591Z,951.74
2016-07-31T02:51:29.413Z,951.75
2016-07-31T02:52:27.430Z,951.77
2016-07-31T02:53:30.287Z,951.73
2016-07-31T02:54:29.443Z,951.80
2016-07-31T02:55:28.483Z,951.78
2016-07-31T02:56:29.510Z,951.77
2016-07-31T02:57:29.407Z,951.73
2016-07-31T02:58:29.572Z,951.68
2016-07-31T02:59:20.964Z,951.66
2016-07-31T03:00:30.693Z,951.60
2016-07-31T03:01:14.851Z,951.59
2016-07-31T03:02:34.526Z,951.56
2016-07-31T03:03:28.494Z,951.60
2016-07-31T03:04:32.848Z,951.61
2016-07-31T03:05:33.672Z,951.59
2016-07-31T03:06:33.289Z,951.64
2016-07-31T03:07:33.877Z,951.62
2016-07-31T03:08:29.766Z,951.60
2016-07-31T03:09:21.864Z,951.63
2016-07-31T03:10:28.206Z,951.57
2016-07-31T03:11:28.225Z,951.54
2016-07-31T03:12:30.218Z,951.55
2016-07-31T03:13:39.876Z,951.51
2016-07-31T03:14:28.291Z,951.51
2016-07-31T03:15:22.976Z,951.51
2016-07-31T03:16:39.326Z,951.45
2016-07-31T03:17:21.332Z,951.43
2016-07-31T03:18:16.046Z,951.46
2016-07-31T03:19:39.651Z,951.44
2016-07-31T03:20:27.063Z,951.46
2016-07-31T03:21:33.235Z,951.51
2016-07-31T03:22:28.684Z,951.54
2016-07-31T03:23:32.602Z,951.53
2016-07-31T03:24:28.536Z,951.53
2016-07-31T03:25:37.787Z,951.48
2016-07-31T03:26:12.524Z,951.48
2016-07-31T03:27:26.045Z,951.44
2016-07-31T03:28:38.389Z,951.47
2016-07-31T03:29:34.475Z,951.46
2016-07-31T03:30:15.824Z,951.39
2016-07-31T03:31:33.576Z,951.40
2016-07-31T03:32:26.879Z,951.39
2016-07-31T03:33:31.570Z,951.38
2016-07-31T03:34:22.986Z,951.33
2016-07-31T03:35:32.474Z,951.30
2016-07-31T03:36:34.372Z,951.32
2016-07-31T03:37:21.951Z,951.35
2016-07-31T03:38:35.170Z,951.38
2016-07-31T03:39:31.493Z,951.33
2016-07-31T03:40:26.954Z,951.32
2016-07-31T03:41:20.471Z,951.35
2016-07-31T03:42:42.624Z,951.31
2016-07-31T03:43:26.788Z,951.34
2016-07-31T03:44:23.466Z,951.34
2016-07-31T03:45:30.485Z,951.34
2016-07-31T03:46:33.485Z,951.30
2016-07-31T03:47:30.075Z,951.31
2016-07-31T03:48:29.788Z,951.36
2016-07-31T03:49:26.794Z,951.32
2016-07-31T03:50:33.055Z,951.30
2016-07-31T03:51:32.312Z,951.30
2016-07-31T03:52:14.369Z,951.31
2016-07-31T03:53:36.526Z,951.36
2016-07-31T03:54:27.301Z,951.39
2016-07-31T03:55:32.677Z,951.38
2016-07-31T03:56:28.567Z,951.37
2016-07-31T03:57:36.833Z,951.36
2016-07-31T03:58:27.778Z,951.36
2016-07-31T03:59:14.192Z,951.36
2016-07-31T04:00:26.596Z,951.39
2016-07-31T04:01:25.496Z,951.37
2016-07-31T04:02:34.073Z,951.38
2016-07-31T04:03:44.988Z,951.40
2016-07-31T04:04:32.787Z,951.44
2016-07-31T04:05:31.574Z,951.42
2016-07-31T04:06:39.357Z,951.43
2016-07-31T04:07:25.469Z,951.41
2016-07-31T04:08:32.451Z,951.42
2016-07-31T04:09:33.367Z,951.42
2016-07-31T04:10:29.278Z,951.42
2016-07-31T04:11:31.518Z,951.45
2016-07-31T04:12:32.420Z,951.41
2016-07-31T04:13:28.360Z,951.42
2016-07-31T04:14:26.813Z,951.45
2016-07-31T04:15:25.549Z,951.42
2016-07-31T04:16:31.132Z,951.43
2016-07-31T04:17:33.031Z,951.45
2016-07-31T04:18:21.996Z,951.53
2016-07-31T04:19:33.180Z,951.54
2016-07-31T04:20:30.013Z,951.51
2016-07-31T04:21:26.698Z,951.51
2016-07-31T04:22:29.470Z,951.51
2016-07-31T04:23:29.304Z,951.53
2016-07-31T04:24:28.311Z,951.51
2016-07-31T04:25:20.099Z,951.51
2016-07-31T04:26:30.074Z,951.53
2016-07-31T04:27:27.917Z,951.50
2016-07-31T04:28:35.901Z,951.50
2016-07-31T04:29:38.366Z,951.51
2016-07-31T04:30:34.018Z,951.52
2016-07-31T04:31:27.530Z,951.47
2016-07-31T04:32:29.134Z,951.48
2016-07-31T04:33:28.834Z,951.53
2016-07-31T04:34:33.130Z,951.48
2016-07-31T04:35:30.325Z,951.51
2016-07-31T04:36:42.044Z,951.49
2016-07-31T04:37:31.795Z,951.50
2016-07-31T04:38:26.384Z,951.50
2016-07-31T04:39:31.795Z,951.51
2016-07-31T04:40:29.147Z,951.53
2016-07-31T04:41:32.716Z,951.51
2016-07-31T04:42:28.704Z,951.56
2016-07-31T04:43:30.226Z,951.52
2016-07-31T04:44:38.458Z,951.50
2016-07-31T04:45:29.073Z,951.51
2016-07-31T04:46:31.007Z,951.48
2016-07-31T04:47:47.980Z,951.44
2016-07-31T04:48:26.148Z,951.44
2016-07-31T04:49:26.244Z,951.46
2016-07-31T04:50:33.595Z,951.45
2016-07-31T04:51:31.398Z,951.44
2016-07-31T04:52:29.929Z,951.46
2016-07-31T04:53:38.987Z,951.47
2016-07-31T04:54:32.958Z,951.49
2016-07-31T04:55:35.233Z,951.58
2016-07-31T04:56:27.592Z,951.60
2016-07-31T04:57:33.558Z,951.67
2016-07-31T04:58:26.990Z,951.80
2016-07-31T04:59:26.336Z,951.88
2016-07-31T05:00:22.466Z,951.68
2016-07-31T05:01:26.074Z,951.67
2016-07-31T05:02:28.066Z,951.73
2016-07-31T05:03:23.676Z,951.71
2016-07-31T05:04:30.354Z,951.62
2016-07-31T05:05:28.370Z,951.61
2016-07-31T05:06:22.204Z,951.62
2016-07-31T05:07:26.394Z,951.60
2016-07-31T05:08:29.137Z,951.56
2016-07-31T05:09:12.967Z,951.54
2016-07-31T05:10:30.187Z,951.58
2016-07-31T05:11:31.068Z,951.57
2016-07-31T05:12:32.799Z,951.54
2016-07-31T05:13:28.359Z,951.57
2016-07-31T05:14:27.846Z,951.57
2016-07-31T05:15:29.939Z,951.56
2016-07-31T05:16:14.537Z,951.55
2016-07-31T05:17:32.985Z,951.56
2016-07-31T05:18:33.909Z,951.60
2016-07-31T05:19:30.497Z,951.64
2016-07-31T05:20:29.640Z,951.64
2016-07-31T05:21:32.416Z,951.66
2016-07-31T05:22:37.181Z,951.71
2016-07-31T05:23:27.208Z,951.66
2016-07-31T05:24:32.817Z,951.71
2016-07-31T05:25:28.701Z,951.70
2016-07-31T05:26:36.848Z,951.76
2016-07-31T05:27:39.389Z,951.75
2016-07-31T05:28:38.839Z,951.77
2016-07-31T05:29:33.816Z,951.74
2016-07-31T05:30:19.547Z,951.77
2016-07-31T05:31:32.394Z,951.79
2016-07-31T05:32:30.657Z,951.77
2016-07-31T05:33:23.789Z,951.80
2016-07-31T05:34:20.156Z,951.78
2016-07-31T05:35:19.857Z,951.75
2016-07-31T05:36:36.192Z,951.75
2016-07-31T05:37:29.497Z,951.77
2016-07-31T05:38:33.632Z,951.79
2016-07-31T05:39:28.175Z,951.81
2016-07-31T05:40:30.253Z,951.81
2016-07-31T05:41:26.977Z,951.83
2016-07-31T05:42:21.198Z,951.84
2016-07-31T05:43:33.647Z,951.85
2016-07-31T05:44:31.127Z,951.87
2016-07-31T05:45:25.066Z,951.82
2016-07-31T05:46:33.588Z,951.87
2016-07-31T05:47:15.150Z,951.88
2016-07-31T05:48:33.288Z,951.83
2016-07-31T05:49:28.838Z,951.87
2016-07-31T05:50:15.122Z,951.83
2016-07-31T05:51:25.000Z,951.87
2016-07-31T05:52:26.857Z,951.80
2016-07-31T05:53:26.067Z,951.79
2016-07-31T05:54:32.129Z,951.76
2016-07-31T05:55:12.605Z,951.74
2016-07-31T05:56:32.977Z,951.75
2016-07-31T05:57:37.859Z,951.71
2016-07-31T05:58:32.407Z,951.77
2016-07-31T05:59:38.764Z,951.80
2016-07-31T06:00:15.758Z,951.81
2016-07-31T06:01:28.756Z,951.82
2016-07-31T06:02:29.998Z,951.81
2016-07-31T06:03:27.052Z,951.79
2016-07-31T06:04:31.453Z,951.80
2016-07-31T06:05:37.109Z,951.81
2016-07-31T06:06:32.304Z,951.83
2016-07-31T06:07:34.290Z,951.89
2016-07-31T06:08:29.010Z,951.86
2016-07-31T06:09:15.044Z,951.86
2016-07-31T06:10:40.149Z,951.85
2016-07-31T06:11:14.526Z,951.89
2016-07-31T06:12:14.837Z,951.83
2016-07-31T06:13:28.749Z,951.84
2016-07-31T06:14:13.719Z,951.87
2016-07-31T06:15:37.391Z,951.90
2016-07-31T06:16:12.443Z,951.88
2016-07-31T06:17:28.012Z,951.88
2016-07-31T06:18:33.231Z,951.90
2016-07-31T06:19:26.560Z,951.85
2016-07-31T06:20:29.507Z,951.84
2016-07-31T06:21:30.018Z,951.80
2016-07-31T06:22:34.314Z,951.85
2016-07-31T06:23:33.859Z,951.83
2016-07-31T06:24:14.452Z,951.87
2016-07-31T06:25:37.250Z,951.89
2016-07-31T06:26:33.428Z,951.86
2016-07-31T06:27:24.992Z,951.90
2016-07-31T06:28:29.999Z,951.90
2016-07-31T06:29:29.517Z,951.94
2016-07-31T06:30:37.834Z,951.94
2016-07-31T06:31:32.962Z,952.03
2016-07-31T06:32:35.212Z,952.06
2016-07-31T06:33:20.903Z,952.03
2016-07-31T06:34:33.680Z,952.01
2016-07-31T06:35:29.526Z,952.03
2016-07-31T06:36:29.527Z,952.03
2016-07-31T06:37:13.854Z,952.03
2016-07-31T06:38:22.580Z,952.06
2016-07-31T06:39:30.049Z,952.10
2016-07-31T06:40:33.387Z,952.07
2016-07-31T06:41:30.878Z,952.11
2016-07-31T06:42:36.487Z,952.08
2016-07-31T06:43:38.924Z,952.11
2016-07-31T06:44:31.760Z,952.16
2016-07-31T06:45:13.725Z,952.14
2016-07-31T06:46:15.498Z,952.18
2016-07-31T06:47:30.086Z,952.19
2016-07-31T06:48:31.708Z,952.21
2016-07-31T06:49:29.796Z,952.21
2016-07-31T06:50:30.297Z,952.24
2016-07-31T06:51:31.608Z,952.26
2016-07-31T06:52:33.982Z,952.19
2016-07-31T06:53:12.406Z,952.22
2016-07-31T06:54:28.864Z,952.20
2016-07-31T06:55:30.065Z,952.21
2016-07-31T06:56:34.125Z,952.23
2016-07-31T06:57:32.007Z,952.25
2016-07-31T06:58:33.170Z,952.24
2016-07-31T06:59:30.738Z,952.25
2016-07-31T07:00:25.024Z,952.24
2016-07-31T07:01:14.935Z,952.28
2016-07-31T07:02:28.604Z,952.35
2016-07-31T07:03:12.384Z,952.36
2016-07-31T07:04:10.744Z,952.42
2016-07-31T07:05:34.192Z,952.41
2016-07-31T07:06:33.014Z,952.41
2016-07-31T07:07:17.124Z,952.45
2016-07-31T07:08:33.690Z,952.54
2016-07-31T07:09:29.369Z,952.50
2016-07-31T07:10:32.025Z,952.53
2016-07-31T07:11:32.879Z,952.58
2016-07-31T07:12:33.994Z,952.60
2016-07-31T07:13:14.750Z,952.56
2016-07-31T07:14:29.573Z,952.60
2016-07-31T07:15:19.949Z,952.63
2016-07-31T07:16:30.426Z,952.65
2016-07-31T07:17:27.834Z,952.68
2016-07-31T07:18:28.835Z,952.72
2016-07-31T07:19:31.107Z,952.74
2016-07-31T07:20:31.139Z,952.72
2016-07-31T07:21:31.562Z,952.78
2016-07-31T07:22:29.579Z,952.82
2016-07-31T07:23:27.391Z,952.83
2016-07-31T07:24:32.607Z,952.86
2016-07-31T07:25:26.464Z,952.94
2016-07-31T07:26:30.344Z,952.99
2016-07-31T07:27:25.608Z,952.99
2016-07-31T07:28:33.067Z,953.08
2016-07-31T07:30:34.064Z,953.07
2016-07-31T07:31:32.071Z,953.18
2016-07-31T07:32:24.616Z,953.17
2016-07-31T07:33:31.650Z,953.15
2016-07-31T07:34:24.198Z,953.13
2016-07-31T07:35:33.617Z,953.10
2016-07-31T07:36:30.762Z,953.17
2016-07-31T07:37:40.430Z,953.17
2016-07-31T07:38:32.586Z,953.17
2016-07-31T07:39:40.264Z,953.17
2016-07-31T07:40:35.495Z,953.21
2016-07-31T07:41:36.088Z,953.22
2016-07-31T07:42:27.750Z,953.24
2016-07-31T07:43:29.645Z,953.24
2016-07-31T07:45:25.239Z,953.27
2016-07-31T07:46:26.744Z,953.28
2016-07-31T07:47:35.742Z,953.30
2016-07-31T07:48:40.003Z,953.35
2016-07-31T07:49:14.235Z,953.36
2016-07-31T07:50:37.832Z,953.39
2016-07-31T07:51:29.318Z,953.39
2016-07-31T07:52:36.331Z,953.42
2016-07-31T07:53:29.247Z,953.43
2016-07-31T07:54:37.320Z,953.48
2016-07-31T07:55:26.824Z,953.48
2016-07-31T07:56:39.654Z,953.47
2016-07-31T07:57:43.506Z,953.49
2016-07-31T07:58:38.580Z,953.52
2016-07-31T08:00:35.123Z,953.55
2016-07-31T08:01:29.097Z,953.52
2016-07-31T08:02:27.531Z,953.54
2016-07-31T08:03:32.810Z,953.56
2016-07-31T08:04:34.241Z,953.59
2016-07-31T08:05:31.716Z,953.69
2016-07-31T08:06:23.478Z,953.71
2016-07-31T08:07:16.792Z,953.72
2016-07-31T08:08:28.920Z,953.76
2016-07-31T08:09:28.493Z,953.74
2016-07-31T08:10:10.369Z,953.73
2016-07-31T08:11:28.921Z,953.76
2016-07-31T08:12:23.248Z,953.72
2016-07-31T08:13:35.063Z,953.73
2016-07-31T08:14:40.264Z,953.67
2016-07-31T08:15:20.150Z,953.68
2016-07-31T08:16:32.365Z,953.64
2016-07-31T08:17:32.181Z,953.66
2016-07-31T08:18:39.328Z,953.69
2016-07-31T08:19:36.421Z,953.73
2016-07-31T08:20:32.888Z,953.75
2016-07-31T08:21:12.826Z,953.80
2016-07-31T08:22:29.176Z,953.86
2016-07-31T08:23:24.560Z,953.88
2016-07-31T08:24:28.737Z,953.92
2016-07-31T08:25:29.803Z,953.93
2016-07-31T08:26:13.768Z,953.98
2016-07-31T08:27:30.177Z,953.99
2016-07-31T08:28:18.011Z,954.02
2016-07-31T08:29:13.706Z,954.07
2016-07-31T08:30:39.649Z,954.05
2016-07-31T08:31:29.715Z,954.06
2016-07-31T08:32:32.800Z,954.05
2016-07-31T08:33:27.697Z,953.97
2016-07-31T08:34:22.722Z,953.92
2016-07-31T08:35:13.318Z,953.88
2016-07-31T08:36:22.028Z,953.83
2016-07-31T08:37:20.525Z,953.85
2016-07-31T08:38:24.659Z,953.86
2016-07-31T08:39:32.629Z,953.87
2016-07-31T08:40:26.572Z,953.92
2016-07-31T08:41:28.501Z,953.98
2016-07-31T08:42:31.613Z,954.01
2016-07-31T08:43:13.085Z,953.95
2016-07-31T08:44:13.898Z,953.99
2016-07-31T08:45:21.965Z,953.99
2016-07-31T08:46:26.997Z,954.01
2016-07-31T08:47:22.656Z,953.96
2016-07-31T08:48:32.735Z,954.00
2016-07-31T08:49:28.565Z,954.04
2016-07-31T08:50:27.539Z,954.01
2016-07-31T08:51:49.954Z,953.98
2016-07-31T08:52:33.332Z,953.99
2016-07-31T08:53:22.272Z,953.97
2016-07-31T08:54:32.452Z,953.97
2016-07-31T08:55:39.735Z,953.95
2016-07-31T08:56:27.958Z,953.94
2016-07-31T08:57:32.434Z,953.94
2016-07-31T08:58:27.118Z,953.97
2016-07-31T08:59:18.358Z,953.94
2016-07-31T09:00:37.120Z,953.93
2016-07-31T09:01:28.137Z,953.93
2016-07-31T09:02:28.418Z,953.87
2016-07-31T09:03:32.784Z,953.92
2016-07-31T09:04:28.120Z,953.84
2016-07-31T09:05:26.182Z,953.84
2016-07-31T09:06:21.627Z,953.84
2016-07-31T09:07:29.750Z,953.80
2016-07-31T09:08:22.032Z,953.86
2016-07-31T09:09:29.665Z,953.85
2016-07-31T09:10:28.995Z,953.88
2016-07-31T09:11:31.746Z,953.87
2016-07-31T09:12:28.966Z,953.89
2016-07-31T09:13:30.468Z,953.83
2016-07-31T09:14:33.361Z,953.85
2016-07-31T09:15:31.673Z,953.86
2016-07-31T09:16:25.854Z,953.90
2016-07-31T09:17:14.610Z,953.85
2016-07-31T09:18:34.148Z,953.85
2016-07-31T09:19:29.766Z,953.91
2016-07-31T09:20:20.589Z,953.88
2016-07-31T09:21:31.919Z,953.87
2016-07-31T09:22:14.824Z,953.86
2016-07-31T09:23:54.037Z,953.83
2016-07-31T09:24:37.366Z,953.81
2016-07-31T09:25:38.036Z,953.79
2016-07-31T09:26:12.881Z,953.75
2016-07-31T09:27:33.030Z,953.71
2016-07-31T09:28:21.627Z,953.71
2016-07-31T09:29:33.077Z,953.70
2016-07-31T09:30:27.415Z,953.68
2016-07-31T09:31:12.494Z,953.72
2016-07-31T09:32:37.157Z,953.65
2016-07-31T09:33:13.939Z,953.66
2016-07-31T09:34:37.287Z,953.63
2016-07-31T09:35:33.401Z,953.61
2016-07-31T09:36:49.159Z,953.55
2016-07-31T09:37:30.514Z,953.54
2016-07-31T09:38:26.899Z,953.51
2016-07-31T09:39:26.979Z,953.50
2016-07-31T09:40:13.731Z,953.50
2016-07-31T09:41:16.159Z,953.48
2016-07-31T09:42:29.499Z,953.48
2016-07-31T09:43:13.093Z,953.49
2016-07-31T09:44:22.888Z,953.49
2016-07-31T09:45:31.062Z,953.52
2016-07-31T09:46:27.909Z,953.50
2016-07-31T09:47:30.235Z,953.53
2016-07-31T09:48:34.202Z,953.52
2016-07-31T09:49:27.432Z,953.51
2016-07-31T09:50:31.637Z,953.51
2016-07-31T09:51:18.082Z,953.48
2016-07-31T09:52:32.455Z,953.46
2016-07-31T09:53:12.832Z,953.50
2016-07-31T09:54:10.320Z,953.44
2016-07-31T09:55:14.866Z,953.48
2016-07-31T09:56:13.537Z,953.45
2016-07-31T09:57:31.709Z,953.48
2016-07-31T09:58:14.343Z,953.41
2016-07-31T09:59:31.984Z,953.40
2016-07-31T10:00:29.048Z,953.37
2016-07-31T10:01:37.977Z,953.36
2016-07-31T10:02:44.378Z,953.28
2016-07-31T10:03:15.149Z,953.30
2016-07-31T10:04:13.782Z,953.28
2016-07-31T10:05:36.246Z,953.24
2016-07-31T10:06:31.545Z,953.24
2016-07-31T10:07:27.718Z,953.25
2016-07-31T10:08:33.022Z,953.25
2016-07-31T10:09:38.777Z,953.22
2016-07-31T10:10:38.726Z,953.23
2016-07-31T10:11:27.580Z,953.24
2016-07-31T10:12:28.282Z,953.24
2016-07-31T10:13:28.646Z,953.24
2016-07-31T10:14:17.949Z,953.22
2016-07-31T10:15:26.250Z,953.25
2016-07-31T10:16:23.798Z,953.24
2016-07-31T10:17:13.049Z,953.26
2016-07-31T10:18:32.736Z,953.28
2016-07-31T10:19:31.149Z,953.17
2016-07-31T10:20:38.905Z,953.20
2016-07-31T10:21:33.114Z,953.18
2016-07-31T10:22:12.835Z,953.21
2016-07-31T10:23:29.703Z,953.20
2016-07-31T10:24:38.130Z,953.16
2016-07-31T10:25:18.370Z,953.14
2016-07-31T10:26:37.641Z,953.16
2016-07-31T10:27:23.968Z,953.09
2016-07-31T10:28:37.785Z,953.11
2016-07-31T10:29:12.858Z,953.09
2016-07-31T10:30:27.396Z,953.07
2016-07-31T10:31:38.510Z,953.06
2016-07-31T10:32:34.025Z,953.01
2016-07-31T10:33:35.625Z,953.05
2016-07-31T10:34:15.877Z,953.02
2016-07-31T10:35:46.126Z,953.02
2016-07-31T10:36:40.768Z,953.04
2016-07-31T10:37:12.817Z,952.97
2016-07-31T10:38:12.352Z,953.00
2016-07-31T10:39:32.819Z,952.91
2016-07-31T10:40:13.747Z,952.94
2016-07-31T10:41:32.713Z,952.97
2016-07-31T10:42:12.966Z,952.95
2016-07-31T10:43:12.394Z,952.91
2016-07-31T10:44:40.377Z,952.87
2016-07-31T10:45:39.090Z,952.86
2016-07-31T10:46:29.362Z,952.81
2016-07-31T10:47:23.738Z,952.83
2016-07-31T10:48:26.078Z,952.83
2016-07-31T10:49:13.392Z,952.84
2016-07-31T10:50:19.056Z,952.86
2016-07-31T10:51:22.794Z,952.83
2016-07-31T10:52:15.067Z,952.86
2016-07-31T10:53:23.226Z,952.85
2016-07-31T10:54:33.737Z,952.85
2016-07-31T10:55:14.720Z,952.79
2016-07-31T10:56:16.836Z,952.81
2016-07-31T10:57:13.457Z,952.77
2016-07-31T10:58:28.822Z,952.75
2016-07-31T10:59:29.299Z,952.73
2016-07-31T11:00:35.152Z,952.75
2016-07-31T11:01:13.753Z,952.75
2016-07-31T11:02:23.808Z,952.73
2016-07-31T11:03:27.177Z,952.78
2016-07-31T11:04:32.805Z,952.77
2016-07-31T11:05:26.913Z,952.79
2016-07-31T11:06:34.932Z,952.72
2016-07-31T11:07:19.850Z,952.73
2016-07-31T11:08:25.139Z,952.68
2016-07-31T11:09:34.457Z,952.70
2016-07-31T11:10:36.143Z,952.68
2016-07-31T11:11:27.024Z,952.69
2016-07-31T11:12:28.702Z,952.69
2016-07-31T11:13:25.007Z,952.68
2016-07-31T11:14:34.205Z,952.74
2016-07-31T11:15:30.867Z,952.73
2016-07-31T11:16:22.895Z,952.69
2016-07-31T11:17:28.479Z,952.73
2016-07-31T11:18:19.019Z,952.75
2016-07-31T11:19:28.206Z,952.78
2016-07-31T11:20:26.482Z,952.81
2016-07-31T11:21:31.848Z,952.78
2016-07-31T11:22:30.160Z,952.79
2016-07-31T11:23:14.778Z,952.74
2016-07-31T11:24:17.231Z,952.76
2016-07-31T11:25:15.902Z,952.77
2016-07-31T11:26:15.659Z,952.79
2016-07-31T11:27:11.737Z,952.81
2016-07-31T11:28:34.871Z,952.82
2016-07-31T11:29:29.930Z,952.84
2016-07-31T11:30:13.067Z,952.82
2016-07-31T11:31:13.333Z,952.84
2016-07-31T11:32:12.675Z,952.86
2016-07-31T11:33:22.355Z,952.85
2016-07-31T11:34:33.392Z,952.84
2016-07-31T11:35:27.330Z,952.83
2016-07-31T11:36:31.727Z,952.84
2016-07-31T11:37:33.907Z,952.83
2016-07-31T11:38:17.215Z,952.88
2016-07-31T11:39:13.353Z,952.87
2016-07-31T11:40:13.111Z,952.88
2016-07-31T11:41:37.216Z,952.85
2016-07-31T11:42:19.357Z,952.84
2016-07-31T11:43:36.676Z,952.84
2016-07-31T11:44:17.390Z,952.82
2016-07-31T11:46:13.370Z,952.81
2016-07-31T11:47:27.111Z,952.81
2016-07-31T11:48:33.592Z,952.84
2016-07-31T11:49:30.290Z,952.79
2016-07-31T11:50:33.492Z,952.79
2016-07-31T11:51:28.591Z,952.78
2016-07-31T11:52:26.724Z,952.80
2016-07-31T11:53:22.790Z,952.79
2016-07-31T11:54:31.812Z,952.81
2016-07-31T11:55:13.843Z,952.78
2016-07-31T11:56:32.805Z,952.79
2016-07-31T11:57:32.828Z,952.80
2016-07-31T11:58:13.509Z,952.80
2016-07-31T11:59:34.845Z,952.77
2016-07-31T12:01:29.249Z,952.81
2016-07-31T12:02:38.467Z,952.83
2016-07-31T12:03:32.306Z,952.82
2016-07-31T12:04:20.765Z,952.80
2016-07-31T12:05:14.574Z,952.82
2016-07-31T12:06:13.556Z,952.84
2016-07-31T12:07:14.824Z,952.85
2016-07-31T12:08:16.713Z,952.84
2016-07-31T12:09:32.081Z,952.86
2016-07-31T12:10:21.477Z,952.85
2016-07-31T12:11:34.461Z,952.84
2016-07-31T12:12:28.383Z,952.88
2016-07-31T12:13:16.483Z,952.83
2016-07-31T12:14:34.513Z,952.90
2016-07-31T12:15:25.926Z,952.89
2016-07-31T12:16:25.305Z,952.90
2016-07-31T12:17:38.709Z,952.92
2016-07-31T12:18:33.020Z,952.87
2016-07-31T12:19:33.296Z,952.88
2016-07-31T12:20:12.601Z,952.85
2016-07-31T12:21:23.075Z,952.90
2016-07-31T12:22:29.280Z,952.86
2016-07-31T12:23:32.810Z,952.85
2016-07-31T12:24:28.203Z,952.87
2016-07-31T12:25:31.177Z,952.86
2016-07-31T12:26:16.961Z,952.88
2016-07-31T12:27:22.185Z,952.88
2016-07-31T12:28:24.832Z,952.87
2016-07-31T12:29:17.612Z,952.84
2016-07-31T12:30:32.268Z,952.85
2016-07-31T12:31:27.500Z,952.83
2016-07-31T12:32:33.736Z,952.88
2016-07-31T12:33:17.744Z,952.89